createdAt,value
2023-06-19T00:01:12.577Z,7.28
2023-06-19T00:03:39.997Z,7.68
2023-06-19T00:06:07.750Z,8.38
2023-06-19T00:08:35.439Z,8.65
2023-06-19T00:11:03.056Z,8.75
2023-06-19T00:13:55.451Z,8.48
2023-06-19T00:16:22.803Z,7.60
2023-06-19T00:18:50.164Z,7.75
2023-06-19T00:21:17.417Z,8.38
2023-06-19T00:23:44.662Z,9.80
2023-06-19T00:26:15.536Z,10.95
2023-06-19T00:28:46.259Z,11.48
2023-06-19T00:31:14.942Z,11.23
2023-06-19T00:33:42.657Z,10.90
2023-06-19T00:36:13.942Z,10.80
2023-06-19T00:38:41.519Z,12.27
2023-06-19T00:41:09.937Z,12.95
2023-06-19T00:44:02.665Z,10.27
2023-06-19T00:46:30.430Z,10.65
2023-06-19T00:48:58.378Z,10.07
2023-06-19T00:51:25.721Z,11.10
2023-06-19T00:53:53.538Z,9.95
2023-06-19T00:56:20.782Z,10.85
2023-06-19T00:58:48.386Z,9.90
2023-06-19T01:01:16.013Z,9.77
2023-06-19T01:03:43.651Z,9.70
2023-06-19T01:06:23.021Z,9.90
2023-06-19T01:09:02.215Z,10.93
2023-06-19T01:11:37.064Z,11.38
2023-06-19T01:14:10.413Z,10.25
2023-06-19T01:16:38.493Z,10.48
2023-06-19T01:19:10.719Z,12.80
2023-06-19T01:21:38.697Z,10.07
2023-06-19T01:24:06.203Z,10.57
2023-06-19T01:26:34.389Z,11.02
2023-06-19T01:29:02.110Z,12.00
2023-06-19T01:31:40.076Z,10.90
2023-06-19T01:34:09.782Z,12.50
2023-06-19T01:36:37.311Z,11.45
2023-06-19T01:39:05.469Z,10.77
2023-06-19T01:41:34.553Z,11.82
2023-06-19T01:44:01.849Z,10.45
2023-06-19T01:46:29.255Z,11.02
2023-06-19T01:48:58.260Z,10.63
2023-06-19T01:51:26.759Z,17.17
2023-06-19T01:53:54.248Z,10.52
2023-06-19T01:56:21.692Z,11.57
2023-06-19T01:58:49.024Z,11.52
2023-06-19T02:01:16.943Z,10.18
2023-06-19T02:03:44.310Z,12.40
2023-06-19T02:06:11.853Z,11.23
2023-06-19T02:08:39.160Z,11.10
2023-06-19T02:11:06.513Z,11.82
2023-06-19T02:13:34.343Z,10.98
2023-06-19T02:16:02.707Z,11.15
2023-06-19T02:18:30.059Z,10.15
2023-06-19T02:20:57.827Z,10.88
2023-06-19T02:23:25.801Z,10.85
2023-06-19T02:25:55.367Z,12.77
2023-06-19T02:28:22.643Z,10.50
2023-06-19T02:30:51.035Z,11.23
2023-06-19T02:33:18.334Z,10.82
2023-06-19T02:35:46.984Z,10.00
2023-06-19T02:38:15.726Z,12.27
2023-06-19T02:40:43.134Z,10.55
2023-06-19T02:43:11.714Z,10.10
2023-06-19T02:45:39.358Z,10.63
2023-06-19T02:48:07.321Z,10.77
2023-06-19T02:50:35.379Z,11.15
2023-06-19T02:53:02.840Z,10.43
2023-06-19T02:55:30.108Z,10.48
2023-06-19T02:57:57.774Z,9.93
2023-06-19T03:00:26.143Z,10.45
2023-06-19T03:02:54.838Z,10.93
2023-06-19T03:05:22.298Z,10.35
2023-06-19T03:07:49.758Z,11.57
2023-06-19T03:10:17.680Z,13.25
2023-06-19T03:12:44.991Z,10.77
2023-06-19T03:15:12.408Z,13.27
2023-06-19T03:17:43.686Z,11.48
2023-06-19T03:20:13.576Z,12.23
2023-06-19T03:22:46.674Z,12.82
2023-06-19T03:25:16.443Z,11.27
2023-06-19T03:27:43.916Z,13.27
2023-06-19T03:30:13.976Z,11.75
2023-06-19T03:32:43.262Z,11.55
2023-06-19T03:35:18.444Z,10.85
2023-06-19T03:37:45.801Z,12.55
2023-06-19T03:40:15.038Z,12.93
2023-06-19T03:43:17.632Z,12.60
2023-06-19T03:45:46.067Z,13.80
2023-06-19T03:48:13.794Z,13.77
2023-06-19T03:50:42.720Z,13.45
2023-06-19T03:53:10.168Z,13.50
2023-06-19T03:55:40.438Z,12.73
2023-06-19T03:58:07.704Z,12.77
2023-06-19T04:00:35.124Z,13.25
2023-06-19T04:03:02.824Z,12.02
2023-06-19T04:05:30.658Z,13.05
2023-06-19T04:07:58.128Z,12.45
2023-06-19T04:10:25.610Z,12.15
2023-06-19T04:12:56.646Z,13.85
2023-06-19T04:15:24.239Z,13.32
2023-06-19T04:17:51.502Z,14.25
2023-06-19T04:20:18.869Z,14.63
2023-06-19T04:22:48.509Z,14.57
2023-06-19T04:25:15.966Z,14.30
2023-06-19T04:27:45.839Z,17.40
2023-06-19T04:30:13.735Z,14.82
2023-06-19T04:32:41.935Z,13.95
2023-06-19T04:35:10.303Z,14.27
2023-06-19T04:37:37.678Z,13.73
2023-06-19T04:40:05.737Z,14.07
2023-06-19T04:42:33.042Z,13.45
2023-06-19T04:45:01.156Z,13.77
2023-06-19T04:47:36.272Z,17.40
2023-06-19T04:50:08.851Z,13.82
2023-06-19T04:52:36.299Z,13.60
2023-06-19T04:55:03.902Z,18.00
2023-06-19T04:57:31.158Z,14.57
2023-06-19T04:59:58.941Z,13.68
2023-06-19T05:02:26.298Z,14.23
2023-06-19T05:04:53.742Z,13.90
2023-06-19T05:07:21.090Z,13.15
2023-06-19T05:09:48.379Z,15.35
2023-06-19T05:12:15.656Z,18.23
2023-06-19T05:14:42.966Z,17.85
2023-06-19T05:17:10.777Z,12.75
2023-06-19T05:19:38.178Z,18.10
2023-06-19T05:22:05.843Z,15.25
2023-06-19T05:24:33.531Z,18.13
2023-06-19T05:27:00.852Z,18.77
2023-06-19T05:29:28.162Z,19.85
2023-06-19T05:31:55.548Z,17.33
2023-06-19T05:34:23.941Z,16.15
2023-06-19T05:36:51.410Z,19.63
2023-06-19T05:39:19.989Z,17.27
2023-06-19T05:41:47.236Z,17.02
2023-06-19T05:44:17.046Z,17.75
2023-06-19T05:46:44.389Z,20.10
2023-06-19T05:49:11.910Z,19.40
2023-06-19T05:51:39.348Z,20.90
2023-06-19T05:54:06.662Z,13.25
2023-06-19T05:56:34.636Z,15.27
2023-06-19T05:59:02.733Z,18.83
2023-06-19T06:01:30.943Z,16.55
2023-06-19T06:03:58.568Z,17.80
2023-06-19T06:06:26.707Z,16.40
2023-06-19T06:08:55.891Z,15.27
2023-06-19T06:11:23.592Z,18.67
2023-06-19T06:13:50.926Z,17.00
2023-06-19T06:16:18.229Z,18.25
2023-06-19T06:18:46.804Z,20.50
2023-06-19T06:21:14.469Z,21.20
2023-06-19T06:23:42.574Z,18.17
2023-06-19T06:26:12.751Z,22.35
2023-06-19T06:28:40.417Z,22.85
2023-06-19T06:31:08.261Z,23.83
2023-06-19T06:33:44.851Z,22.42
2023-06-19T06:36:19.268Z,21.63
2023-06-19T06:38:55.254Z,25.30
2023-06-19T06:41:22.733Z,16.30
2023-06-19T06:43:50.148Z,22.63
2023-06-19T06:46:17.646Z,20.40
2023-06-19T06:48:45.368Z,21.92
2023-06-19T06:51:12.747Z,22.88
2023-06-19T06:53:40.061Z,19.58
2023-06-19T06:56:07.390Z,20.45
2023-06-19T06:58:34.703Z,17.92
2023-06-19T07:01:02.102Z,16.08
2023-06-19T07:03:32.680Z,17.38
2023-06-19T07:06:00.047Z,18.27
2023-06-19T07:08:27.374Z,18.33
2023-06-19T07:10:54.686Z,17.35
2023-06-19T07:13:22.369Z,15.38
2023-06-19T07:15:49.608Z,18.25
2023-06-19T07:18:16.942Z,15.75
2023-06-19T07:20:44.407Z,15.55
2023-06-19T07:23:12.279Z,12.30
2023-06-19T07:25:39.660Z,12.43
2023-06-19T07:28:06.939Z,13.40
2023-06-19T07:30:34.410Z,16.75
2023-06-19T07:33:01.866Z,14.32
2023-06-19T07:35:29.294Z,15.05
2023-06-19T07:37:56.610Z,14.18
2023-06-19T07:40:24.266Z,12.75
2023-06-19T07:42:51.989Z,14.35
2023-06-19T07:45:19.328Z,12.85
2023-06-19T07:47:56.141Z,16.63
2023-06-19T07:50:27.060Z,14.30
2023-06-19T07:52:55.000Z,17.45
2023-06-19T07:55:22.291Z,14.32
2023-06-19T07:57:49.770Z,17.35
2023-06-19T08:00:17.375Z,15.95
2023-06-19T08:02:44.816Z,20.23
2023-06-19T08:05:12.399Z,16.05
2023-06-19T08:07:39.959Z,15.07
2023-06-19T08:10:13.131Z,16.67
2023-06-19T08:12:45.898Z,15.00
2023-06-19T08:15:16.357Z,20.50
2023-06-19T08:17:44.305Z,18.17
2023-06-19T08:20:12.104Z,17.55
2023-06-19T08:22:39.423Z,20.95
2023-06-19T08:25:07.165Z,15.63
2023-06-19T08:27:34.735Z,16.95
2023-06-19T08:31:04.891Z,14.60
2023-06-19T08:33:32.221Z,19.23
2023-06-19T08:35:59.525Z,16.55
2023-06-19T08:38:26.830Z,13.88
2023-06-19T08:40:56.364Z,19.45
2023-06-19T08:43:24.424Z,18.63
2023-06-19T08:46:09.623Z,14.98
2023-06-19T08:48:37.401Z,17.27
2023-06-19T08:51:05.653Z,15.35
2023-06-19T08:53:36.378Z,17.85
2023-06-19T08:56:06.223Z,16.65
2023-06-19T08:58:33.888Z,16.55
2023-06-19T09:01:01.289Z,12.63
2023-06-19T09:03:28.723Z,15.48
2023-06-19T09:05:56.249Z,19.10
2023-06-19T09:08:24.511Z,15.65
2023-06-19T09:10:57.090Z,18.27
2023-06-19T09:13:24.404Z,14.68
2023-06-19T09:16:04.053Z,14.70
2023-06-19T09:18:32.843Z,19.25
2023-06-19T09:21:00.320Z,14.98
2023-06-19T09:23:27.647Z,16.55
2023-06-19T09:25:59.257Z,19.40
2023-06-19T09:28:29.452Z,16.83
2023-06-19T09:31:00.992Z,14.88
2023-06-19T09:33:30.989Z,14.23
2023-06-19T09:35:59.903Z,18.25
2023-06-19T09:38:29.139Z,16.88
2023-06-19T09:40:59.684Z,15.20
2023-06-19T09:43:42.466Z,16.55
2023-06-19T09:46:11.881Z,16.85
2023-06-19T09:48:47.486Z,14.63
2023-06-19T09:51:38.588Z,14.20
2023-06-19T09:54:07.686Z,18.38
2023-06-19T09:56:35.688Z,16.05
2023-06-19T09:59:05.586Z,13.57
2023-06-19T10:01:33.859Z,16.13
2023-06-19T10:04:09.210Z,17.25
2023-06-19T10:06:50.076Z,14.75
2023-06-19T10:09:19.277Z,14.40
2023-06-19T10:11:53.729Z,14.80
2023-06-19T10:14:22.533Z,13.35
2023-06-19T10:16:50.676Z,11.52
2023-06-19T10:19:21.548Z,12.38
2023-06-19T10:21:51.362Z,12.48
2023-06-19T10:24:21.103Z,10.98
2023-06-19T10:27:03.551Z,11.50
2023-06-19T10:29:42.915Z,10.27
2023-06-19T10:32:15.018Z,16.00
2023-06-19T10:34:50.223Z,13.40
2023-06-19T10:37:18.129Z,14.82
2023-06-19T10:39:45.740Z,14.20
2023-06-19T10:42:13.083Z,12.38
2023-06-19T10:44:43.057Z,15.90
2023-06-19T10:47:10.457Z,10.05
2023-06-19T10:49:37.873Z,10.38
2023-06-19T10:54:55.390Z,7.57
2023-06-19T10:57:32.189Z,8.95
2023-06-19T10:59:59.756Z,13.18
2023-06-19T11:02:27.455Z,8.93
2023-06-19T11:04:55.919Z,8.30
2023-06-19T11:07:24.169Z,9.27
2023-06-19T11:09:51.676Z,8.70
2023-06-19T11:12:22.600Z,9.27
2023-06-19T11:14:50.574Z,8.88
2023-06-19T11:17:24.738Z,10.43
2023-06-19T11:19:52.351Z,9.77
2023-06-19T11:22:19.635Z,9.50
2023-06-19T11:24:47.580Z,9.48
2023-06-19T11:27:28.360Z,12.68
2023-06-19T11:29:57.681Z,9.35
2023-06-19T11:32:26.223Z,13.63
2023-06-19T11:34:54.805Z,10.38
2023-06-19T11:37:22.401Z,11.40
2023-06-19T11:39:51.937Z,11.23
2023-06-19T11:42:19.607Z,9.40
2023-06-19T11:44:57.091Z,11.43
2023-06-19T11:47:24.780Z,12.60
2023-06-19T11:49:52.720Z,14.93
2023-06-19T11:52:20.187Z,17.90
2023-06-19T11:54:48.115Z,20.25
2023-06-19T11:57:15.508Z,21.35
2023-06-19T11:59:43.395Z,20.63
2023-06-19T12:02:10.939Z,16.77
2023-06-19T12:04:38.331Z,17.55
2023-06-19T12:07:16.713Z,12.38
2023-06-19T12:09:44.297Z,18.95
2023-06-19T12:12:11.735Z,16.27
2023-06-19T12:14:40.666Z,14.93
2023-06-19T12:17:08.118Z,15.25
2023-06-19T12:19:35.542Z,16.50
2023-06-19T12:22:04.812Z,13.15
2023-06-19T12:24:32.102Z,12.30
2023-06-19T12:26:59.390Z,8.98
2023-06-19T12:29:27.336Z,12.95
2023-06-19T12:32:01.324Z,11.73
2023-06-19T12:34:31.557Z,12.00
2023-06-19T12:36:59.413Z,8.30
2023-06-19T12:39:27.354Z,11.77
2023-06-19T12:41:57.402Z,9.52
2023-06-19T12:44:25.684Z,9.00
2023-06-19T12:46:53.986Z,17.48
2023-06-19T12:49:21.326Z,9.00
2023-06-19T12:51:52.291Z,10.02
2023-06-19T12:55:09.583Z,6.53
2023-06-19T12:57:37.475Z,9.65
2023-06-19T13:00:09.221Z,10.20
2023-06-19T13:02:36.694Z,6.90
2023-06-19T13:05:04.156Z,6.72
2023-06-19T13:07:32.733Z,8.73
2023-06-19T13:10:00.443Z,8.50
2023-06-19T13:12:27.835Z,7.50
2023-06-19T13:14:55.097Z,8.88
2023-06-19T13:17:22.472Z,8.93
2023-06-19T13:19:49.825Z,10.13
2023-06-19T13:22:17.147Z,6.78
2023-06-19T13:24:44.528Z,6.97
2023-06-19T13:27:11.890Z,9.18
2023-06-19T13:29:40.745Z,6.97
2023-06-19T13:32:08.561Z,7.40
2023-06-19T13:34:35.918Z,9.50
2023-06-19T13:37:03.879Z,7.47
2023-06-19T13:39:31.450Z,7.47
2023-06-19T13:42:01.074Z,6.75
2023-06-19T13:44:28.741Z,8.98
2023-06-19T13:46:56.104Z,6.70
2023-06-19T13:49:23.484Z,7.57
2023-06-19T13:51:51.924Z,5.38
2023-06-19T13:54:19.918Z,7.00
2023-06-19T13:57:18.748Z,5.40
2023-06-19T13:59:46.088Z,7.60
2023-06-19T14:02:13.713Z,5.97
2023-06-19T14:04:41.108Z,9.02
2023-06-19T14:07:08.792Z,6.72
2023-06-19T14:09:36.056Z,6.78
2023-06-19T14:12:03.606Z,6.50
2023-06-19T14:14:31.029Z,5.95
2023-06-19T14:16:59.430Z,7.95
2023-06-19T14:19:26.924Z,4.93
2023-06-19T14:21:54.333Z,7.28
2023-06-19T14:24:21.797Z,5.28
2023-06-19T14:26:49.163Z,5.97
2023-06-19T14:29:19.845Z,6.70
2023-06-19T14:31:47.521Z,5.97
2023-06-19T14:34:23.861Z,5.88
2023-06-19T14:36:51.311Z,6.90
2023-06-19T14:39:18.598Z,6.88
2023-06-19T14:41:45.934Z,5.63
2023-06-19T14:44:13.454Z,7.85
2023-06-19T14:46:41.011Z,5.93
2023-06-19T14:49:10.900Z,8.02
2023-06-19T14:51:38.191Z,7.30
2023-06-19T14:54:05.705Z,5.63
2023-06-19T14:56:33.006Z,6.20
2023-06-19T14:59:00.339Z,6.43
2023-06-19T15:01:56.549Z,5.45
2023-06-19T15:04:24.134Z,4.88
2023-06-19T15:06:51.872Z,6.97
2023-06-19T15:09:19.204Z,6.57
2023-06-19T15:11:46.598Z,5.65
2023-06-19T15:14:13.944Z,5.72
2023-06-19T15:16:41.632Z,5.78
2023-06-19T15:19:09.002Z,8.25
2023-06-19T15:21:36.513Z,6.85
2023-06-19T15:24:04.221Z,9.27
2023-06-19T15:26:31.577Z,5.50
2023-06-19T15:28:58.912Z,5.47
2023-06-19T15:31:27.179Z,5.95
2023-06-19T15:33:54.616Z,6.68
2023-06-19T15:36:22.172Z,5.88
2023-06-19T15:38:49.476Z,5.65
2023-06-19T15:41:16.777Z,4.68
2023-06-19T15:43:44.159Z,5.97
2023-06-19T15:46:12.630Z,5.57
2023-06-19T15:48:40.010Z,6.07
2023-06-19T15:51:07.281Z,6.15
2023-06-19T15:53:34.726Z,8.77
2023-06-19T15:56:02.901Z,7.40
2023-06-19T15:58:30.211Z,6.15
2023-06-19T16:00:57.506Z,6.70
2023-06-19T16:03:25.673Z,5.72
2023-06-19T16:08:26.381Z,5.78
2023-06-19T16:10:54.115Z,5.38
2023-06-19T16:13:21.438Z,6.10
2023-06-19T16:15:48.803Z,5.70
2023-06-19T16:18:16.327Z,6.80
2023-06-19T16:20:43.700Z,6.22
2023-06-19T16:23:11.215Z,5.40
2023-06-19T16:25:38.794Z,5.53
2023-06-19T16:28:06.363Z,6.03
2023-06-19T16:30:34.473Z,5.63
2023-06-19T16:33:03.850Z,6.75
2023-06-19T16:35:31.407Z,7.32
2023-06-19T16:37:58.693Z,5.60
2023-06-19T16:40:27.115Z,6.68
2023-06-19T16:42:54.919Z,6.40
2023-06-19T16:45:24.802Z,5.45
2023-06-19T16:47:52.234Z,7.05
2023-06-19T16:50:19.620Z,6.28
2023-06-19T16:52:46.877Z,5.82
2023-06-19T16:55:14.432Z,8.05
2023-06-19T16:57:41.905Z,6.70
2023-06-19T17:00:11.468Z,5.72
2023-06-19T17:02:38.951Z,7.10
2023-06-19T17:05:06.810Z,6.07
2023-06-19T17:07:34.186Z,7.32
2023-06-19T17:10:03.439Z,6.93
2023-06-19T17:12:34.149Z,6.55
2023-06-19T17:15:01.739Z,8.68
2023-06-19T17:17:29.183Z,5.90
2023-06-19T17:19:56.629Z,7.72
2023-06-19T17:22:24.080Z,7.05
2023-06-19T17:24:51.569Z,5.28
2023-06-19T17:27:19.125Z,5.68
2023-06-19T17:29:46.403Z,7.15
2023-06-19T17:32:13.669Z,6.88
2023-06-19T17:34:40.901Z,7.72
2023-06-19T17:37:08.265Z,7.40
2023-06-19T17:39:35.541Z,6.43
2023-06-19T17:42:02.909Z,6.65
2023-06-19T17:44:31.414Z,7.35
2023-06-19T17:46:59.961Z,6.07
2023-06-19T17:49:27.312Z,6.22
2023-06-19T17:51:54.582Z,6.65
2023-06-19T17:54:22.578Z,8.45
2023-06-19T17:56:50.084Z,6.78
2023-06-19T17:59:17.505Z,8.00
2023-06-19T18:01:44.865Z,9.18
2023-06-19T18:04:13.975Z,8.68
2023-06-19T18:06:43.579Z,7.55
2023-06-19T18:09:10.853Z,7.07
2023-06-19T18:11:38.489Z,6.45
2023-06-19T18:14:07.115Z,7.60
2023-06-19T18:16:38.447Z,5.60
2023-06-19T18:19:06.270Z,7.65
2023-06-19T18:21:33.608Z,5.70
2023-06-19T18:24:02.627Z,6.93
2023-06-19T18:26:32.407Z,5.88
2023-06-19T18:29:00.380Z,6.05
2023-06-19T18:31:27.889Z,7.55
2023-06-19T18:33:55.601Z,5.65
2023-06-19T18:36:22.979Z,6.60
2023-06-19T18:38:50.372Z,7.93
2023-06-19T18:41:17.785Z,6.68
2023-06-19T18:43:45.297Z,6.55
2023-06-19T18:46:12.590Z,6.35
2023-06-19T18:48:41.925Z,5.15
2023-06-19T18:51:09.223Z,5.85
2023-06-19T18:53:36.641Z,7.05
2023-06-19T18:56:04.168Z,6.28
2023-06-19T18:58:31.700Z,7.95
2023-06-19T19:00:59.258Z,10.82
2023-06-19T19:03:27.380Z,10.63
2023-06-19T19:05:55.053Z,8.13
2023-06-19T19:08:23.909Z,6.40
2023-06-19T19:10:51.313Z,7.85
2023-06-19T19:13:18.605Z,10.48
2023-06-19T19:15:46.080Z,9.50
2023-06-19T19:18:13.716Z,7.30
2023-06-19T19:20:41.285Z,8.80
2023-06-19T19:23:09.503Z,8.68
2023-06-19T19:25:36.811Z,9.63
2023-06-19T19:28:04.355Z,8.45
2023-06-19T19:30:31.839Z,9.10
2023-06-19T19:32:59.295Z,8.60
2023-06-19T19:35:26.620Z,7.05
2023-06-19T19:37:53.938Z,7.15
2023-06-19T19:40:21.326Z,10.80
2023-06-19T19:42:48.630Z,7.30
2023-06-19T19:45:16.052Z,7.97
2023-06-19T19:47:43.332Z,8.32
2023-06-19T19:50:12.918Z,7.85
2023-06-19T19:52:40.174Z,7.32
2023-06-19T19:55:08.062Z,7.20
2023-06-19T19:57:35.366Z,7.97
2023-06-19T20:00:03.798Z,8.30
2023-06-19T20:02:34.076Z,7.90
2023-06-19T20:05:01.680Z,9.98
2023-06-19T20:07:31.338Z,8.65
2023-06-19T20:09:58.661Z,8.05
2023-06-19T20:12:30.453Z,8.35
2023-06-19T20:14:58.744Z,7.28
2023-06-19T20:17:26.175Z,9.02
2023-06-19T20:19:53.707Z,7.53
2023-06-19T20:22:23.429Z,8.57
2023-06-19T20:24:50.746Z,9.57
2023-06-19T20:27:18.351Z,11.70
2023-06-19T20:29:45.752Z,7.70
2023-06-19T20:32:13.253Z,9.77
2023-06-19T20:34:40.624Z,8.20
2023-06-19T20:37:07.976Z,7.53
2023-06-19T20:39:35.315Z,9.73
2023-06-19T20:42:03.632Z,9.10
2023-06-19T20:44:31.155Z,9.15
2023-06-19T20:47:01.476Z,8.23
2023-06-19T20:49:29.188Z,9.52
2023-06-19T20:51:56.947Z,8.15
2023-06-19T20:54:24.200Z,6.85
2023-06-19T20:56:51.532Z,7.03
2023-06-19T20:59:21.567Z,7.82
2023-06-19T21:01:55.534Z,8.70
2023-06-19T21:04:23.488Z,11.63
2023-06-19T21:06:50.834Z,7.50
2023-06-19T21:09:19.480Z,7.40
2023-06-19T21:11:47.578Z,7.03
2023-06-19T21:14:15.355Z,7.75
2023-06-19T21:16:42.792Z,7.65
2023-06-19T21:19:10.195Z,7.38
2023-06-19T21:21:37.515Z,7.45
2023-06-19T21:24:05.154Z,9.02
2023-06-19T21:26:32.622Z,7.65
2023-06-19T21:28:59.918Z,6.80
2023-06-19T21:31:27.207Z,10.25
2023-06-19T21:33:54.549Z,8.98
2023-06-19T21:36:21.848Z,7.70
2023-06-19T21:38:49.239Z,8.10
2023-06-19T21:41:16.587Z,7.55
2023-06-19T21:43:44.030Z,7.10
2023-06-19T21:46:11.489Z,7.95
2023-06-19T21:48:38.919Z,7.05
2023-06-19T21:51:06.275Z,7.63
2023-06-19T21:53:33.836Z,10.25
2023-06-19T21:56:01.242Z,8.65
2023-06-19T21:58:28.749Z,8.60
2023-06-19T22:00:56.121Z,9.93
2023-06-19T22:03:23.755Z,9.27
2023-06-19T22:05:51.228Z,9.27
2023-06-19T22:08:27.136Z,8.55
2023-06-19T22:11:01.334Z,9.82
2023-06-19T22:13:30.360Z,10.30
2023-06-19T22:15:57.661Z,9.55
2023-06-19T22:18:26.069Z,8.68
2023-06-19T22:20:53.493Z,9.02
2023-06-19T22:23:21.243Z,9.32
2023-06-19T22:25:48.607Z,8.50
2023-06-19T22:28:18.100Z,8.55
2023-06-19T22:30:45.680Z,10.93
2023-06-19T22:33:14.857Z,8.55
2023-06-19T22:35:42.348Z,9.45
2023-06-19T22:38:09.854Z,9.18
2023-06-19T22:40:37.171Z,8.73
2023-06-19T22:43:04.435Z,8.82
2023-06-19T22:45:31.701Z,8.50
2023-06-19T22:47:59.078Z,11.00
2023-06-19T22:50:26.753Z,8.95
2023-06-19T22:52:54.285Z,8.48
2023-06-19T22:55:22.038Z,10.35
2023-06-19T22:57:49.473Z,8.85
2023-06-19T23:00:16.970Z,9.93
2023-06-19T23:02:45.789Z,8.73
2023-06-19T23:05:14.253Z,9.73
2023-06-19T23:07:42.901Z,9.70
2023-06-19T23:10:10.864Z,9.38
2023-06-19T23:12:38.433Z,9.82
2023-06-19T23:15:07.820Z,11.30
2023-06-19T23:17:35.864Z,9.98
2023-06-19T23:20:05.639Z,9.07
2023-06-19T23:22:32.955Z,9.48
2023-06-19T23:25:01.428Z,8.82
2023-06-19T23:27:29.044Z,17.40
2023-06-19T23:29:56.335Z,10.15
2023-06-19T23:32:23.605Z,9.32
2023-06-19T23:34:51.074Z,9.15
2023-06-19T23:37:18.613Z,8.32
2023-06-19T23:39:45.877Z,10.60
2023-06-19T23:42:13.273Z,9.82
2023-06-19T23:44:40.671Z,10.48
2023-06-19T23:47:08.529Z,10.73
2023-06-19T23:49:36.187Z,11.63
2023-06-19T23:52:03.827Z,9.02
2023-06-19T23:54:31.379Z,11.15
2023-06-19T23:56:58.696Z,9.82
2023-06-19T23:59:25.983Z,8.98
